Latest Weather Observations for The Monument

IDQ60801

Issued at 7:02 am EST Sunday 22 October 2017 (issued every 30 minutes, with the page automatically refreshed every 10 minutes)

About weather observations | Map of weather stations | Latest weather observations for QLD | Other Formats
Station Details ID: 037034 Name: THE MONUMENT AIRPORT Lat: -21.81 Lon: 139.93 Height: 288.4 m
Data from the previous 72 hours. | See also: Recent months at The Monument
Date/Time
EST
Temp
°C
App
Temp
°C
Dew
Point
°C
Rel
Hum
%
Delta-T
°C
Wind Press
QNH
hPa
Press
MSL
hPa
Rain since
9am
mm
Dir  Spd
km/h
Gust
km/h
Spd
kts
Gust
kts
22/07:00am 15.9 13.4 4.6 47 5.4 SW 7 9 4 5 1017.1 1015.4 0.2
22/06:30am 14.3 12.2 5.7 56 4.1 SW 6 7 3 4 1016.6 1015.0 0.2
22/06:00am 13.1 11.5 7.8 70 2.6 WSW 6 7 3 4 1016.2 1014.6 0.2
22/05:30am 13.7 11.5 6.1 60 3.7 SW 7 9 4 5 1015.8 1014.2 0.2
22/05:00am 13.4 12.9 7.8 69 2.8 CALM 0 0 0 0 1015.6 1013.9 0.2
22/04:30am 13.9 12.9 7.4 65 3.2 SSW 2 7 1 4 1015.4 1013.7 0.2
22/04:00am 15.5 13.2 5.7 52 4.8 SSW 7 7 4 4 1015.4 1013.7 0.2
22/03:30am 16.0 12.9 3.8 44 5.7 S 9 9 5 5 1015.3 1013.6 0.2
22/03:00am 16.5 13.7 2.9 40 6.3 S 7 7 4 4 1015.4 1013.7 0.2
22/02:30am 17.4 14.1 2.6 37 6.8 S 9 11 5 6 1015.7 1014.0 0.2
22/02:00am 17.9 14.2 2.2 35 7.2 S 11 17 6 9 1015.9 1014.3 0.2
22/01:30am 18.5 14.4 2.4 34 7.5 SSE 13 15 7 8 1016.1 1014.5 0.2
22/01:00am 18.9 15.1 1.9 32 7.8 SSE 11 15 6 8 1016.3 1014.7 0.2
22/12:30am 20.0 15.1 1.9 30 8.4 SSE 17 24 9 13 1016.4 1014.8 0.2
22/12:00am 19.9 15.3 1.8 30 8.4 S 15 20 8 11 1016.8 1015.1 0.2
 
Date/Time
EST
Temp
°C
App
Temp
°C
Dew
Point
°C
Rel
Hum
%
Delta-T
°C
Wind Press
QNH
hPa
Press
MSL
hPa
Rain since
9am
mm
Dir  Spd
km/h
Gust
km/h
Spd
kts
Gust
kts
21/11:30pm 21.0 15.7 1.8 28 9.0 S 19 26 10 14 1016.9 1015.2 0.2
21/11:00pm 21.2 16.6 1.5 27 9.2 S 15 20 8 11 1017.0 1015.3 0.2
21/10:30pm 22.2 16.6 1.3 25 9.8 S 20 30 11 16 1016.9 1015.2 0.2
21/10:00pm 22.7 17.4 1.7 25 9.9 S 19 24 10 13 1016.8 1015.1 0.2
21/09:30pm 23.3 18.0 1.6 24 10.3 S 19 26 10 14 1016.5 1014.9 0.2
21/09:00pm 23.7 18.8 2.0 24 10.4 SSW 17 20 9 11 1016.4 1014.8 0.2
21/08:30pm 24.4 19.4 1.3 22 11.0 S 17 22 9 12 1016.2 1014.6 0.2
21/08:00pm 24.8 20.1 1.0 21 11.3 S 15 20 8 11 1016.0 1014.4 0.2
21/07:30pm 26.0 20.4 -0.1 18 12.3 S 19 24 10 13 1015.7 1014.0 0.2
21/07:00pm 27.0 21.2 -0.1 17 12.8 S 20 30 11 16 1015.4 1013.7 0.2
21/06:30pm 28.1 21.9 -0.1 16 13.4 S 22 30 12 16 1015.0 1013.3 0.2
21/06:00pm 29.3 23.0 1.7 17 13.7 S 24 33 13 18 1014.7 1013.0 0.2
21/05:30pm 29.7 22.9 2.9 18 13.6 S 28 37 15 20 1014.4 1012.7 0.2
21/05:00pm 30.1 24.4 4.7 20 13.3 SSE 24 32 13 17 1014.3 1012.6 0.2
21/04:30pm 30.6 24.8 4.4 19 13.7 S 24 37 13 20 1014.4 1012.7 0.2
21/04:00pm 30.7 25.4 6.6 22 13.1 SSE 24 37 13 20 1014.5 1012.8 0.2
21/03:30pm 30.5 25.2 8.3 25 12.4 S 26 44 14 24 1014.7 1013.0 0.2
21/03:00pm 30.7 25.5 9.0 26 12.3 S 26 41 14 22 1015.1 1013.4 0.2
21/02:30pm 30.2 25.4 10.2 29 11.5 SSE 26 46 14 25 1015.5 1013.8 0.2
21/02:00pm 29.7 25.0 10.8 31 10.9 SSE 26 39 14 21 1015.9 1014.3 0.2
21/01:30pm 28.8 24.2 10.9 33 10.3 SSE 26 39 14 21 1016.5 1014.9 0.2
21/01:00pm 29.4 25.3 12.8 36 9.9 SSE 26 46 14 25 1017.1 1015.4 0.2
21/12:30pm 30.1 26.5 14.2 38 9.7 SSE 26 39 14 21 1017.6 1015.9 0.2
21/12:00pm 28.1 24.1 14.0 42 8.5 SSE 28 37 15 20 1018.1 1016.4 0.2
21/11:30am 27.5 25.2 15.8 48 7.3 SSE 22 35 12 19 1018.6 1016.9 0.2
21/11:00am 26.4 23.6 16.3 53 6.3 SSE 26 39 14 21 1019.1 1017.5 0.2
21/10:30am 25.2 22.7 16.1 57 5.6 SSE 24 33 13 18 1019.4 1017.8 0.2
21/10:00am 24.8 21.7 16.5 60 5.1 SSE 28 41 15 22 1019.6 1018.0 0.0
21/09:30am 25.0 22.5 18.0 65 4.5 SSE 28 39 15 21 1019.4 1017.8 0.0
21/09:00am 22.8 21.1 17.3 71 3.4 SSE 22 33 12 18 1019.3 1017.7 18.6
21/08:30am 22.6 20.2 17.3 72 3.3 SSE 26 37 14 20 1019.0 1017.4 18.6
21/08:00am 22.0 21.0 18.0 78 2.5 SSE 20 30 11 16 1018.9 1017.3 18.6
21/07:30am 21.2 20.2 18.0 82 2.0 SSE 20 28 11 15 1018.7 1017.0 18.6
21/07:00am 21.0 20.8 18.4 85 1.6 SSE 17 24 9 13 1018.4 1016.7 18.6
21/06:40am 20.9 20.7 18.5 86 1.5 S 17 26 9 14 1018.2 1016.5 18.6
21/06:30am 20.8 20.2 18.4 86 1.5 S 19 24 10 13 1018.2 1016.5 18.6
21/06:20am 20.8 21.0 18.6 87 1.4 S 15 20 8 11 1017.9 1016.2 18.6
21/06:00am 20.7 21.6 18.5 87 1.4 S 11 17 6 9 1017.9 1016.2 18.6
21/05:30am 20.7 20.9 17.7 83 1.9 S 13 15 7 8 1017.6 1015.9 18.6
21/05:00am 20.7 21.3 17.7 83 1.9 SSE 11 17 6 9 1017.5 1015.8 18.6
21/04:30am 20.8 20.9 17.4 81 2.1 SSE 13 17 7 9 1017.6 1015.9 18.6
21/04:00am 21.0 21.3 17.8 82 2.0 SSE 13 19 7 10 1017.6 1015.9 18.6
21/03:30am 21.1 21.5 18.1 83 1.9 SSE 13 20 7 11 1017.6 1015.9 18.6
21/03:00am 21.1 21.5 18.1 83 1.9 SSE 13 20 7 11 1017.8 1016.1 18.6
21/02:30am 21.3 21.4 18.3 83 1.9 SSE 15 20 8 11 1017.9 1016.2 18.6
21/02:00am 21.3 21.7 18.1 82 2.0 SSE 13 19 7 10 1018.1 1016.4 18.6
21/01:30am 21.3 22.2 18.5 84 1.8 S 11 15 6 8 1018.4 1016.7 18.6
21/01:00am 21.3 22.2 18.5 84 1.8 SSE 11 15 6 8 1018.5 1016.8 18.6
21/12:30am 21.3 22.6 18.5 84 1.8 SSE 9 15 5 8 1018.9 1017.3 18.6
21/12:00am 21.3 21.7 18.1 82 2.0 SSE 13 17 7 9 1018.9 1017.3 18.6
 
Date/Time
EST
Temp
°C
App
Temp
°C
Dew
Point
°C
Rel
Hum
%
Delta-T
°C
Wind Press
QNH
hPa
Press
MSL
hPa
Rain since
9am
mm
Dir  Spd
km/h
Gust
km/h
Spd
kts
Gust
kts
20/11:30pm 21.3 20.9 18.1 82 2.0 SSE 17 24 9 13 1018.8 1017.1 18.6
20/11:00pm 21.4 21.0 18.8 85 1.7 SSE 19 24 10 13 1018.9 1017.3 18.6
20/10:30pm 21.1 21.1 18.9 87 1.4 SE 17 20 9 11 1019.0 1017.4 18.6
20/10:00pm 20.9 21.2 18.7 87 1.4 ESE 15 26 8 14 1018.8 1017.1 18.6
20/09:30pm 21.2 20.2 18.9 87 1.5 E 22 32 12 17 1018.6 1016.9 18.6
20/09:00pm 20.9 21.4 19.2 90 1.1 SE 15 22 8 12 1018.8 1017.1 18.6
20/08:30pm 21.0 20.2 19.3 90 1.1 SE 22 30 12 16 1019.0 1017.4 17.6
20/08:00pm 21.1 20.6 19.0 88 1.3 SSE 20 28 11 15 1018.8 1017.1 16.4
20/07:30pm 22.3 22.3 18.9 81 2.2 SSE 17 24 9 13 1018.3 1016.6 16.2
20/07:00pm 23.6 22.1 18.5 73 3.2 SE 24 33 13 18 1017.7 1016.0 16.2
20/06:30pm 24.3 23.7 18.9 72 3.5 SE 20 28 11 15 1017.3 1015.6 16.2
20/06:00pm 25.1 24.1 19.7 72 3.5 SE 24 33 13 18 1016.5 1014.9 16.2
20/05:30pm 25.3 24.7 20.5 75 3.2 SE 24 33 13 18 1016.0 1014.4 16.2
20/05:00pm 24.8 23.8 20.5 77 2.8 SSE 26 35 14 19 1015.9 1014.3 16.2
20/04:30pm 24.7 24.2 20.8 79 2.6 SSE 24 41 13 22 1015.9 1014.3 16.0
20/04:17pm 24.4 23.0 21.1 82 2.2 SSE 30 43 16 23 1015.8 1014.2 15.6
20/04:00pm 23.8 25.6 21.9 89 1.3 E 15 28 8 15 1015.7 1014.0 14.8
20/03:30pm 24.4 23.2 21.5 84 1.9 SE 30 43 16 23 1015.4 1013.7 5.4
20/03:26pm 24.7 22.7 21.2 81 2.3 SSE 33 56 18 30 1015.4 1013.7 3.8
20/03:19pm 26.7 24.9 19.6 65 4.6 SSE 28 56 15 30 1015.3 1013.6 3.0
20/03:00pm 29.9 29.7 21.3 60 5.8 SSW 24 35 13 19 1014.8 1013.1 3.0
20/02:35pm 27.2 27.9 21.2 69 4.0 SSW 19 32 10 17 1015.1 1013.4 3.0
20/02:30pm 26.6 28.9 22.0 76 3.1 WSW 13 20 7 11 1015.3 1013.6 3.0
20/02:18pm 25.1 25.9 20.6 76 3.0 ENE 17 28 9 15 1015.5 1013.8 2.6
20/02:00pm 30.0 26.6 16.8 45 8.4 SSE 30 41 16 22 1014.9 1013.2 0.0
20/01:42pm 34.3 32.2 15.2 31 12.0 SSE 20 39 11 21 1014.9 1013.2 0.0
20/01:30pm 34.4 33.1 13.8 29 12.7 SE 13 24 7 13 1015.0 1013.3 0.0
20/01:00pm 34.4 33.9 14.8 30 12.3 SSW 11 17 6 9 1015.6 1013.9 0.0
20/12:30pm 32.8 32.5 14.4 33 11.4 ESE 9 20 5 11 1016.2 1014.6 0.0
20/12:00pm 33.6 33.6 15.1 33 11.6 NE 9 20 5 11 1016.5 1014.9 0.0
20/11:30am 32.7 32.7 15.2 34 11.0 E 9 20 5 11 1017.0 1015.3 0.0
20/11:00am 32.6 32.0 15.6 36 10.7 NE 13 20 7 11 1017.4 1015.7 0.0
20/10:30am 31.6 30.8 16.0 39 9.8 NNE 15 24 8 13 1017.6 1015.9 0.0
20/10:00am 30.5 30.1 16.1 41 9.1 NNE 13 24 7 13 1017.7 1016.0 0.0
20/09:30am 30.0 29.3 16.4 44 8.6 NNE 15 28 8 15 1017.8 1016.1 0.0
20/09:00am 29.7 28.8 16.8 45 8.2 NNE 17 24 9 13 1017.8 1016.1 0.0
20/08:30am 28.3 27.3 16.6 49 7.4 NE 17 24 9 13 1017.7 1016.0 0.0
20/08:00am 27.2 26.2 16.5 52 6.7 NE 17 24 9 13 1017.4 1015.7 0.0
20/07:30am 26.8 25.4 17.0 55 6.2 ENE 20 32 11 17 1017.2 1015.5 0.0
20/07:00am 26.0 24.7 16.8 57 5.8 E 19 26 10 14 1016.8 1015.1 0.0
20/06:30am 25.3 25.5 16.7 59 5.4 E 11 17 6 9 1016.4 1014.8 0.0
20/06:00am 25.3 24.1 17.0 60 5.2 ENE 19 26 10 14 1016.0 1014.4 0.0
20/05:30am 24.9 25.0 16.6 60 5.2 E 11 19 6 10 1015.7 1014.0 0.0
20/05:00am 25.3 25.7 16.4 57 5.5 E 9 11 5 6 1015.6 1013.9 0.0
20/04:30am 25.9 24.9 16.7 57 5.8 ENE 17 24 9 13 1015.2 1013.5 0.0
20/04:00am 26.3 24.9 16.5 54 6.1 ENE 19 30 10 16 1015.1 1013.4 0.0
20/03:30am 26.9 25.9 16.5 53 6.5 E 17 22 9 12 1015.0 1013.3 0.0
20/03:00am 27.2 25.3 16.8 53 6.5 E 22 37 12 20 1014.9 1013.2 0.0
20/02:30am 27.5 25.6 16.8 52 6.7 E 22 30 12 16 1014.9 1013.2 0.0
20/02:00am 28.1 27.0 17.3 52 6.9 E 19 26 10 14 1015.1 1013.4 0.0
20/01:30am 28.3 27.1 17.5 52 6.9 ENE 20 28 11 15 1015.2 1013.5 0.0
20/01:00am 28.5 27.8 17.4 51 7.1 E 17 26 9 14 1015.3 1013.6 0.0
20/12:30am 28.5 27.4 17.4 51 7.1 ENE 19 26 10 14 1015.4 1013.7 0.0
20/12:00am 28.5 27.6 17.7 52 6.9 ENE 19 26 10 14 1015.4 1013.7 0.0
 
Date/Time
EST
Temp
°C
App
Temp
°C
Dew
Point
°C
Rel
Hum
%
Delta-T
°C
Wind Press
QNH
hPa
Press
MSL
hPa
Rain since
9am
mm
Dir  Spd
km/h
Gust
km/h
Spd
kts
Gust
kts
19/11:30pm 28.7 28.5 17.6 51 7.1 ENE 15 20 8 11 1015.5 1013.8 0.0
19/11:00pm 29.0 27.7 17.2 49 7.5 ENE 20 30 11 16 1015.3 1013.6 0.0
19/10:30pm 29.9 26.6 16.0 43 8.7 E 28 37 15 20 1015.3 1013.6 0.0
19/10:00pm 30.5 27.2 16.1 41 9.1 ENE 28 35 15 19 1015.0 1013.3 0.0
19/09:30pm 30.8 27.1 16.0 40 9.3 E 30 39 16 21 1014.5 1012.8 0.0
19/09:00pm 30.9 26.4 14.9 37 9.9 E 32 50 17 27 1014.2 1012.5 0.0
19/08:55pm 31.5 27.7 14.6 36 10.4 ESE 28 50 15 27 1014.1 1012.4 0.0
19/08:30pm 32.4 29.6 13.1 31 11.7 ESE 20 35 11 19 1013.5 1011.8 0.0
19/08:00pm 32.7 30.0 12.9 30 12.0 ESE 19 30 10 16 1013.2 1011.5 0.0
19/07:30pm 33.2 31.0 12.2 28 12.6 ESE 15 20 8 11 1012.7 1011.1 0.0
19/07:00pm 33.1 32.0 12.1 27 12.6 E 9 17 5 9 1012.4 1010.7 0.0
19/06:30pm 33.3 30.2 12.3 28 12.6 SSE 20 50 11 27 1012.0 1010.3 0.0
19/06:00pm 34.1 31.1 11.9 26 13.3 ESE 19 26 10 14 1011.7 1010.0 0.0
19/05:30pm 34.7 31.7 11.8 25 13.7 ESE 19 26 10 14 1011.5 1009.8 0.0
19/05:00pm 35.2 32.5 11.6 24 14.2 ESE 17 26 9 14 1011.5 1009.8 0.0
19/04:30pm 34.8 32.5 11.9 25 13.8 E 15 26 8 14 1011.5 1009.8 0.0
19/04:00pm 34.8 32.0 11.2 24 14.1 ENE 17 28 9 15 1011.6 1009.9 0.0
19/03:30pm 34.6 31.2 10.4 23 14.2 E 19 33 10 18 1011.7 1010.0 0.0
19/03:00pm 35.8 31.9 10.8 22 14.9 ESE 22 35 12 19 1012.0 1010.3 0.0
19/02:30pm 34.7 31.7 10.5 23 14.2 E 17 24 9 13 1012.3 1010.6 0.0
19/02:00pm 34.8 31.2 10.6 23 14.3 ENE 20 35 11 19 1012.6 1010.9 0.0
19/01:30pm 35.0 32.0 12.0 25 13.9 ENE 19 33 10 18 1013.3 1011.6 0.0
19/01:00pm 34.2 30.8 12.5 27 13.1 ENE 22 37 12 20 1013.7 1012.0 0.0
19/12:30pm 33.5 30.9 11.9 27 12.9 ENE 17 33 9 18 1014.1 1012.4 0.0
19/12:00pm 32.6 29.7 12.3 29 12.2 E 19 32 10 17 1014.5 1012.8 0.0
19/11:30am 33.1 30.1 12.7 29 12.3 E 20 32 11 17 1014.8 1013.1 0.0
19/11:00am 32.3 28.9 12.5 30 11.9 E 22 35 12 19 1014.9 1013.2 0.0
19/10:30am 31.7 29.0 13.5 33 11.1 E 20 30 11 16 1015.2 1013.5 0.0
19/10:00am 30.3 27.8 13.6 36 10.1 ENE 19 32 10 17 1015.4 1013.7 0.0
19/09:30am 29.4 26.4 13.6 38 9.5 ENE 22 30 12 16 1015.5 1013.8 0.0
19/09:00am 29.8 27.7 14.7 39 9.3 ENE 19 30 10 16 1015.3 1013.6 0.0
19/08:30am 28.9 26.6 14.7 42 8.7 ENE 20 30 11 16 1015.1 1013.4 0.0
19/08:00am 27.8 24.8 14.8 45 7.9 ENE 24 37 13 20 1014.8 1013.1 0.0
19/07:30am 26.7 23.2 14.5 47 7.4 NE 26 33 14 18 1014.3 1012.6 0.0

Other Formats:

Comma delimited format used in spreadsheet applications
http://www.bom.gov.au/fwo/IDQ60801/IDQ60801.94336.axf

JavaScript Object Notation format (JSON) in row-major order
http://www.bom.gov.au/fwo/IDQ60801/IDQ60801.94336.json